createdAt,value
2023-05-11T00:21:16.722Z,12.79
2023-05-11T00:26:00.638Z,12.79
2023-05-11T04:52:25.456Z,13.07
2023-05-11T04:53:26.357Z,13.04
2023-05-11T04:54:26.330Z,13.07
2023-05-11T04:55:26.157Z,13.09
2023-05-11T04:56:26.126Z,13.11
2023-05-11T04:57:26.208Z,13.15
2023-05-11T04:58:26.149Z,13.24
2023-05-11T04:59:26.907Z,13.29
2023-05-11T05:00:26.088Z,13.37
2023-05-11T05:01:26.108Z,13.43
2023-05-11T05:02:26.200Z,13.58
2023-05-11T05:03:26.096Z,13.74
2023-05-11T05:04:26.149Z,13.77
2023-05-11T05:05:26.042Z,13.80
2023-05-11T05:06:26.173Z,13.84
2023-05-11T05:07:26.013Z,13.81
2023-05-11T05:08:25.996Z,13.79
2023-05-11T05:09:25.984Z,13.74
2023-05-11T05:10:25.982Z,13.70
2023-05-11T05:11:25.992Z,13.74
2023-05-11T05:12:26.013Z,13.73
2023-05-11T05:13:25.963Z,13.74
2023-05-11T05:14:25.988Z,13.80
2023-05-11T05:15:25.974Z,13.80
2023-05-11T05:16:25.943Z,13.65
2023-05-11T05:17:25.898Z,13.56
2023-05-11T05:18:25.994Z,13.46
2023-05-11T05:19:25.930Z,13.40
2023-05-11T05:20:25.876Z,13.37
2023-05-11T05:21:25.907Z,13.41
2023-05-11T05:22:26.093Z,13.41
2023-05-11T05:23:25.859Z,13.44
2023-05-11T05:24:25.818Z,13.44
2023-05-11T05:25:25.864Z,13.44
2023-05-11T05:26:25.826Z,13.43
2023-05-11T05:27:25.840Z,13.54
2023-05-11T05:28:25.845Z,13.56
2023-05-11T05:29:25.797Z,13.69
2023-05-11T05:30:25.922Z,13.84
2023-05-11T05:31:25.900Z,13.94
2023-05-11T05:32:25.872Z,14.07
2023-05-11T05:33:25.839Z,14.06
2023-05-11T05:34:25.750Z,14.02
2023-05-11T05:35:28.059Z,13.89
2023-05-11T05:36:26.360Z,13.84
2023-05-11T05:37:25.927Z,13.83
2023-05-11T05:38:26.077Z,13.87
2023-05-11T05:39:25.743Z,13.91
2023-05-11T05:40:26.097Z,13.89
2023-05-11T06:51:01.352Z,13.81
2023-05-11T06:52:02.455Z,13.87
2023-05-11T06:53:02.372Z,13.96
2023-05-11T06:54:02.269Z,14.01
2023-05-11T06:55:02.291Z,14.12
2023-05-11T06:56:02.284Z,14.09
2023-05-11T06:57:02.321Z,14.10
2023-05-11T06:58:02.404Z,14.09
2023-05-11T06:59:02.231Z,14.17
2023-05-11T07:02:12.461Z,14.42
2023-05-11T07:03:13.281Z,14.47
2023-05-11T07:04:13.093Z,14.53
2023-05-11T07:05:13.084Z,14.60
2023-05-11T07:06:14.072Z,14.69
2023-05-11T07:08:39.876Z,14.95
2023-05-11T07:09:42.106Z,15.11
2023-05-11T07:12:36.842Z,15.30
2023-05-11T07:13:37.577Z,15.39
2023-05-11T07:14:46.829Z,15.43
2023-05-11T07:15:37.460Z,15.57
2023-05-11T07:16:37.475Z,15.41
2023-05-11T07:17:37.791Z,15.15
2023-05-11T07:18:37.423Z,15.08
2023-05-11T07:19:37.362Z,15.03
2023-05-11T07:20:37.387Z,15.03
2023-05-11T07:23:01.059Z,15.11
2023-05-11T07:24:01.988Z,15.06
2023-05-11T07:25:02.082Z,15.06
2023-05-11T07:26:01.951Z,14.99
2023-05-11T07:27:01.965Z,15.02
2023-05-11T07:28:02.069Z,15.05
2023-05-11T07:29:01.916Z,15.24
2023-05-11T07:34:49.660Z,15.56
2023-05-11T07:53:30.047Z,15.63
2023-05-11T07:54:31.078Z,15.66
2023-05-11T07:55:31.077Z,15.74
2023-05-11T07:56:30.968Z,15.78
2023-05-11T07:57:30.868Z,15.68
2023-05-11T07:58:30.857Z,15.72
2023-05-11T07:59:30.851Z,15.67
2023-05-11T08:00:30.831Z,15.66
2023-05-11T08:01:30.834Z,15.66
2023-05-11T08:02:31.000Z,15.74
2023-05-11T08:03:30.857Z,15.84
2023-05-11T08:04:30.793Z,15.93
2023-05-11T08:05:30.927Z,15.96
2023-05-11T08:08:43.507Z,16.14
2023-05-11T08:13:38.474Z,16.37
2023-05-11T08:16:06.341Z,16.12
2023-05-11T08:17:07.442Z,16.04
2023-05-11T08:22:11.483Z,16.22
2023-05-11T08:23:12.287Z,16.26
2023-05-11T08:24:12.229Z,16.30
2023-05-11T08:25:12.688Z,16.23
2023-05-11T08:26:14.005Z,16.20
2023-05-11T08:27:12.786Z,16.16
2023-05-11T08:28:12.098Z,16.09
2023-05-11T08:29:12.054Z,16.00
2023-05-11T08:30:12.269Z,15.74
2023-05-11T08:31:12.013Z,15.72
2023-05-11T08:32:12.009Z,15.66
2023-05-11T08:33:33.739Z,15.61
2023-05-11T08:34:19.210Z,15.54
2023-05-11T08:35:11.959Z,15.61
2023-05-11T08:36:11.955Z,15.72
2023-05-11T08:37:11.889Z,15.78
2023-05-11T08:38:11.900Z,15.86
2023-05-11T08:39:11.854Z,15.88
2023-05-11T08:40:13.961Z,16.01
2023-05-11T08:41:11.869Z,16.14
2023-05-11T08:42:11.818Z,16.06
2023-05-11T08:43:11.814Z,16.06
2023-05-11T08:44:11.805Z,16.07
2023-05-11T08:45:11.816Z,16.15
2023-05-11T08:46:11.825Z,16.26
2023-05-11T08:47:22.690Z,16.27
2023-05-11T08:48:11.762Z,16.22
2023-05-11T08:49:11.784Z,16.26
2023-05-11T08:50:11.733Z,16.37
2023-05-11T08:51:11.717Z,16.45
2023-05-11T08:52:11.713Z,16.50
2023-05-11T08:53:11.698Z,16.63
2023-05-11T08:54:11.700Z,16.67
2023-05-11T08:55:11.700Z,16.73
2023-05-11T08:56:11.678Z,16.70
2023-05-11T08:57:11.684Z,16.75
2023-05-11T08:58:11.635Z,16.81
2023-05-11T08:59:11.690Z,16.90
2023-05-11T09:00:11.654Z,16.83
2023-05-11T09:01:12.527Z,16.45
2023-05-11T09:02:11.604Z,16.41
2023-05-11T09:03:11.675Z,16.42
2023-05-11T09:04:11.588Z,16.23
2023-05-11T09:05:11.640Z,16.11
2023-05-11T09:06:11.548Z,15.97
2023-05-11T09:07:11.555Z,15.92
2023-05-11T09:08:11.549Z,15.97
2023-05-11T09:09:11.546Z,15.97
2023-05-11T09:10:13.689Z,15.85
2023-05-11T09:11:11.536Z,15.81
2023-05-11T09:12:11.512Z,15.79
2023-05-11T09:13:11.523Z,15.72
2023-05-11T09:14:11.488Z,15.70
2023-05-11T09:15:11.499Z,15.67
2023-05-11T09:16:27.889Z,15.60
2023-05-11T09:17:11.594Z,15.59
2023-05-11T09:18:11.508Z,15.59
2023-05-11T09:19:11.483Z,15.52
2023-05-11T09:20:11.456Z,15.51
2023-05-11T09:21:11.421Z,15.51
2023-05-11T09:22:11.408Z,15.48
2023-05-11T09:23:11.485Z,15.46
2023-05-11T09:24:11.403Z,15.38
2023-05-11T09:25:11.377Z,15.39
2023-05-11T09:26:11.361Z,15.41
2023-05-11T09:27:11.404Z,15.35
2023-05-11T09:28:15.850Z,15.38
2023-05-11T09:29:11.328Z,15.31
2023-05-11T09:30:11.418Z,15.26
2023-05-11T09:31:11.344Z,15.27
2023-05-11T09:32:11.340Z,15.23
2023-05-11T09:33:11.393Z,15.15
2023-05-11T09:34:11.374Z,15.15
2023-05-11T09:35:11.286Z,15.11
2023-05-11T09:36:11.330Z,15.05
2023-05-11T09:37:11.474Z,15.09
2023-05-11T11:11:14.300Z,15.09
2023-05-11T11:12:15.221Z,15.01
2023-05-11T11:13:15.209Z,14.93
2023-05-11T11:14:15.258Z,14.95
2023-05-11T11:15:15.127Z,14.87
2023-05-11T11:16:16.525Z,14.86
2023-05-11T11:17:15.256Z,14.86
2023-05-11T11:18:15.090Z,14.88
2023-05-11T11:19:15.063Z,14.95
2023-05-11T11:20:15.036Z,14.94
2023-05-11T11:21:15.043Z,14.99
2023-05-11T11:22:15.029Z,14.91
2023-05-11T11:23:15.010Z,15.05
2023-05-11T11:24:15.006Z,15.06
2023-05-11T11:25:14.993Z,15.08
2023-05-11T11:26:15.013Z,15.15
2023-05-11T11:27:14.994Z,15.19
2023-05-11T11:28:15.020Z,15.27
2023-05-11T11:29:14.937Z,15.31
2023-05-11T11:30:14.952Z,15.35
2023-05-11T11:31:14.956Z,15.36
2023-05-11T11:32:14.967Z,15.33
2023-05-11T11:33:14.960Z,15.30
2023-05-11T11:34:14.883Z,15.27
2023-05-11T11:35:14.875Z,15.31
2023-05-11T11:36:14.857Z,15.33
2023-05-11T11:37:14.871Z,15.41
2023-05-11T11:38:14.868Z,15.48
2023-05-11T11:39:14.823Z,15.41
2023-05-11T11:40:15.859Z,15.39
2023-05-11T11:41:14.851Z,15.28
2023-05-11T11:42:14.844Z,15.26
2023-05-11T11:43:14.788Z,15.27
2023-05-11T11:44:14.795Z,15.30
2023-05-11T11:45:14.789Z,15.23
2023-05-11T11:46:14.857Z,15.21
2023-05-11T11:47:14.799Z,15.26
2023-05-11T11:48:14.782Z,15.02
2023-05-11T11:49:14.742Z,14.99
2023-05-11T11:50:14.764Z,14.98
2023-05-11T11:51:14.727Z,14.88
2023-05-11T11:52:14.764Z,14.75
2023-05-11T11:53:14.699Z,14.69
2023-05-11T11:54:14.719Z,14.71
2023-05-11T11:55:14.681Z,14.87
2023-05-11T11:56:14.673Z,14.91
2023-05-11T11:57:14.637Z,14.93
2023-05-11T11:58:14.642Z,14.90
2023-05-11T11:59:14.646Z,14.81
2023-05-11T12:00:14.804Z,14.78
2023-05-11T12:01:14.665Z,14.78
2023-05-11T12:33:48.599Z,15.38
2023-05-11T12:34:48.220Z,15.31
2023-05-11T12:35:58.345Z,15.36
2023-05-11T12:36:48.363Z,15.39
2023-05-11T12:45:33.561Z,15.61
2023-05-11T12:46:33.428Z,15.70
2023-05-11T13:15:48.284Z,15.81
2023-05-11T13:16:49.217Z,15.82
2023-05-11T13:17:49.243Z,15.72
2023-05-11T13:18:49.548Z,15.79
2023-05-11T13:53:45.706Z,16.06
2023-05-11T13:57:14.250Z,15.92
2023-05-11T13:58:23.125Z,15.97
2023-05-11T14:27:15.827Z,15.78
2023-05-11T14:28:16.840Z,15.84
2023-05-11T14:33:25.926Z,15.70
2023-05-11T14:34:26.626Z,15.63
2023-05-11T14:35:26.602Z,15.51
2023-05-11T14:36:26.782Z,15.46
2023-05-11T14:37:26.802Z,15.45
2023-05-11T14:38:27.361Z,15.39
2023-05-11T14:39:26.755Z,15.36
2023-05-11T14:40:26.610Z,15.41
2023-05-11T14:41:26.658Z,15.41
2023-05-11T15:09:16.316Z,15.75
2023-05-11T15:10:16.788Z,15.67
2023-05-11T15:11:16.535Z,15.61
2023-05-11T15:12:16.567Z,15.63
2023-05-11T15:15:58.725Z,15.61
2023-05-11T15:16:59.567Z,15.57
2023-05-11T15:17:59.556Z,15.54
2023-05-11T15:18:59.426Z,15.60
2023-05-11T15:19:59.429Z,15.57
2023-05-11T15:22:18.929Z,15.60
2023-05-11T16:22:41.061Z,14.78
2023-05-11T16:23:41.986Z,14.71
2023-05-11T16:24:41.985Z,14.74
2023-05-11T16:25:41.987Z,14.72
2023-05-11T16:26:41.939Z,14.72
2023-05-11T16:27:41.894Z,14.67
2023-05-11T16:28:41.821Z,14.60
2023-05-11T16:29:41.958Z,14.62
2023-05-11T16:37:42.765Z,14.68
2023-05-11T16:38:45.358Z,14.64
2023-05-11T16:39:43.707Z,14.64
2023-05-11T16:40:43.686Z,14.65
2023-05-11T16:41:43.711Z,14.69
2023-05-11T16:42:43.693Z,14.69
2023-05-11T16:43:43.669Z,14.68
2023-05-11T16:54:08.249Z,14.75
2023-05-11T16:55:09.360Z,14.68
2023-05-11T16:56:09.270Z,14.69
2023-05-11T16:57:09.191Z,14.72
2023-05-11T17:30:39.836Z,14.32
2023-05-11T17:33:00.081Z,14.32
2023-05-11T17:34:01.167Z,14.27
2023-05-11T17:35:00.940Z,14.29
2023-05-11T17:36:00.937Z,14.29
2023-05-11T17:37:00.915Z,14.25
2023-05-11T17:38:00.882Z,14.27
2023-05-11T17:39:00.864Z,14.28
2023-05-11T17:40:01.417Z,14.28
2023-05-11T17:41:01.640Z,14.31
2023-05-11T17:42:00.861Z,14.37
2023-05-11T17:50:55.847Z,13.91
2023-05-11T17:51:56.877Z,13.94
2023-05-11T17:52:56.953Z,13.94
2023-05-11T17:53:56.755Z,13.99
2023-05-11T17:54:56.748Z,13.95
2023-05-11T17:55:56.727Z,13.89
2023-05-11T17:56:56.713Z,13.91
2023-05-11T17:57:56.709Z,13.91
2023-05-11T17:58:56.693Z,13.87
2023-05-11T17:59:56.715Z,13.84
2023-05-11T18:00:56.681Z,13.84
2023-05-11T18:01:56.805Z,13.84
2023-05-11T18:02:56.783Z,13.91
2023-05-11T18:03:56.800Z,13.91
2023-05-11T18:04:56.672Z,13.89
2023-05-11T18:05:56.732Z,13.87
2023-05-11T18:06:56.654Z,13.83
2023-05-11T18:07:56.609Z,13.83
2023-05-11T18:08:56.617Z,13.79
2023-05-11T18:09:56.597Z,13.79
2023-05-11T18:10:56.568Z,13.83
2023-05-11T18:11:56.579Z,13.88
2023-05-11T18:12:56.566Z,13.88
2023-05-11T18:13:56.578Z,13.83
2023-05-11T18:14:56.548Z,13.89
2023-05-11T18:15:56.594Z,13.89
2023-05-11T18:16:56.512Z,13.91
2023-05-11T18:17:56.541Z,13.91
2023-05-11T18:18:56.629Z,13.88
2023-05-11T18:19:56.490Z,13.87
2023-05-11T18:20:56.619Z,13.81
2023-05-11T18:21:56.477Z,13.79
2023-05-11T18:22:56.433Z,13.79
2023-05-11T18:23:56.438Z,13.79
2023-05-11T18:24:56.429Z,13.80
2023-05-11T18:25:56.448Z,13.83
2023-05-11T18:26:56.482Z,13.81
2023-05-11T18:27:56.389Z,13.89
2023-05-11T18:28:56.383Z,13.88
2023-05-11T18:29:56.369Z,13.94
2023-05-11T18:30:56.349Z,13.91
2023-05-11T18:31:56.492Z,13.83
2023-05-11T18:32:56.358Z,13.83
2023-05-11T18:33:56.327Z,13.77
2023-05-11T18:34:56.302Z,13.84
2023-05-11T18:35:56.315Z,13.88
2023-05-11T18:36:56.299Z,13.87
2023-05-11T18:37:56.297Z,13.81
2023-05-11T18:38:56.290Z,13.81
2023-05-11T18:39:56.273Z,13.81
2023-05-11T18:40:56.271Z,13.81
2023-05-11T18:41:56.273Z,13.81
2023-05-11T18:42:56.247Z,13.88
2023-05-11T18:43:56.275Z,13.87
2023-05-11T18:44:56.297Z,13.88
2023-05-11T18:45:56.358Z,13.87
2023-05-11T18:46:56.217Z,13.81
2023-05-11T18:47:56.253Z,13.77
2023-05-11T18:48:56.187Z,13.80
2023-05-11T18:49:56.175Z,13.80
2023-05-11T18:50:56.163Z,13.80
2023-05-11T18:51:56.176Z,13.84
2023-05-11T18:52:56.130Z,13.79
2023-05-11T18:53:56.172Z,13.81
2023-05-11T18:54:56.797Z,13.84
2023-05-11T18:55:56.106Z,13.83
2023-05-11T18:56:56.086Z,13.83
2023-05-11T18:57:56.085Z,13.91
2023-05-11T18:58:56.085Z,13.88
2023-05-11T18:59:56.135Z,13.84
2023-05-11T19:00:56.942Z,13.88
2023-05-11T19:01:56.139Z,13.89
2023-05-11T19:02:56.188Z,13.92
2023-05-11T19:03:56.026Z,13.88
2023-05-11T19:04:56.004Z,13.91
2023-05-11T19:05:56.002Z,13.91
2023-05-11T19:06:56.002Z,13.88
2023-05-11T19:07:55.971Z,13.83
2023-05-11T19:08:55.962Z,13.79
2023-05-11T19:09:55.967Z,13.80
2023-05-11T19:10:55.952Z,13.81
2023-05-11T19:11:55.940Z,13.81
2023-05-11T19:12:55.922Z,13.79
2023-05-11T19:13:55.941Z,13.81
2023-05-11T19:14:55.881Z,13.79
2023-05-11T19:15:55.899Z,13.79
2023-05-11T19:16:56.002Z,13.77
2023-05-11T19:17:55.896Z,13.84
2023-05-11T19:18:55.854Z,13.92
2023-05-11T19:19:55.848Z,13.89
2023-05-11T19:20:55.842Z,13.91
2023-05-11T19:42:41.440Z,13.76
2023-05-11T19:43:42.353Z,13.76
2023-05-11T22:36:42.715Z,12.89
2023-05-11T22:37:43.678Z,12.88
2023-05-11T22:38:43.517Z,12.85
2023-05-11T22:39:43.544Z,12.84
2023-05-11T22:40:43.520Z,12.88
2023-05-11T22:41:43.547Z,12.82
2023-05-11T23:03:25.981Z,12.78
2023-05-11T23:04:26.927Z,12.74
2023-05-11T23:05:26.618Z,12.67
